sensor_id;sensor_type;location;lat;lon;timestamp;P1;durP1;ratioP1;P2;durP2;ratioP2
68089;SDS011;54880;50.986;6.990;2023-02-26T00:01:42;15.18;;;3.78;;
68089;SDS011;54880;50.986;6.990;2023-02-26T00:04:08;8.93;;;2.70;;
68089;SDS011;54880;50.986;6.990;2023-02-26T00:06:34;12.07;;;2.45;;
68089;SDS011;54880;50.986;6.990;2023-02-26T00:09:00;9.52;;;2.53;;
68089;SDS011;54880;50.986;6.990;2023-02-26T00:11:25;10.37;;;2.47;;
68089;SDS011;54880;50.986;6.990;2023-02-26T00:13:50;12.33;;;2.77;;
68089;SDS011;54880;50.986;6.990;2023-02-26T00:18:41;11.80;;;3.03;;
68089;SDS011;54880;50.986;6.990;2023-02-26T00:21:07;11.43;;;2.63;;
68089;SDS011;54880;50.986;6.990;2023-02-26T00:23:33;11.73;;;2.17;;
68089;SDS011;54880;50.986;6.990;2023-02-26T00:25:58;11.47;;;2.53;;
68089;SDS011;54880;50.986;6.990;2023-02-26T00:28:23;10.57;;;2.03;;
68089;SDS011;54880;50.986;6.990;2023-02-26T00:30:49;12.43;;;2.35;;
68089;SDS011;54880;50.986;6.990;2023-02-26T00:33:15;11.13;;;2.30;;
68089;SDS011;54880;50.986;6.990;2023-02-26T00:35:40;9.53;;;2.27;;
68089;SDS011;54880;50.986;6.990;2023-02-26T00:38:07;10.50;;;2.40;;
68089;SDS011;54880;50.986;6.990;2023-02-26T00:40:38;9.10;;;1.65;;
68089;SDS011;54880;50.986;6.990;2023-02-26T00:43:05;6.85;;;2.03;;
68089;SDS011;54880;50.986;6.990;2023-02-26T00:45:32;8.67;;;2.00;;
68089;SDS011;54880;50.986;6.990;2023-02-26T00:50:28;8.70;;;2.13;;
68089;SDS011;54880;50.986;6.990;2023-02-26T00:55:25;9.00;;;2.00;;
68089;SDS011;54880;50.986;6.990;2023-02-26T00:57:50;9.93;;;1.73;;
68089;SDS011;54880;50.986;6.990;2023-02-26T01:00:15;8.30;;;2.10;;
68089;SDS011;54880;50.986;6.990;2023-02-26T01:02:41;8.23;;;2.13;;
68089;SDS011;54880;50.986;6.990;2023-02-26T01:05:07;8.82;;;2.00;;
68089;SDS011;54880;50.986;6.990;2023-02-26T01:07:36;7.18;;;1.88;;
68089;SDS011;54880;50.986;6.990;2023-02-26T01:10:02;9.87;;;1.73;;
68089;SDS011;54880;50.986;6.990;2023-02-26T01:12:28;7.68;;;1.70;;
68089;SDS011;54880;50.986;6.990;2023-02-26T01:14:53;11.53;;;1.40;;
68089;SDS011;54880;50.986;6.990;2023-02-26T01:17:32;6.73;;;1.77;;
68089;SDS011;54880;50.986;6.990;2023-02-26T01:20:01;14.20;;;2.40;;
68089;SDS011;54880;50.986;6.990;2023-02-26T01:22:34;7.85;;;1.40;;
68089;SDS011;54880;50.986;6.990;2023-02-26T01:25:02;8.23;;;1.70;;
68089;SDS011;54880;50.986;6.990;2023-02-26T01:27:28;7.83;;;2.00;;
68089;SDS011;54880;50.986;6.990;2023-02-26T01:29:53;9.05;;;1.77;;
68089;SDS011;54880;50.986;6.990;2023-02-26T01:34:56;6.78;;;1.55;;
68089;SDS011;54880;50.986;6.990;2023-02-26T01:42:30;8.40;;;1.97;;
68089;SDS011;54880;50.986;6.990;2023-02-26T01:50:12;9.52;;;1.52;;
68089;SDS011;54880;50.986;6.990;2023-02-26T01:55:16;6.53;;;1.70;;
68089;SDS011;54880;50.986;6.990;2023-02-26T01:57:41;6.90;;;1.83;;
68089;SDS011;54880;50.986;6.990;2023-02-26T02:00:07;5.28;;;1.52;;
68089;SDS011;54880;50.986;6.990;2023-02-26T02:02:37;7.45;;;1.45;;
68089;SDS011;54880;50.986;6.990;2023-02-26T02:05:11;8.80;;;1.63;;
68089;SDS011;54880;50.986;6.990;2023-02-26T02:07:37;8.75;;;1.50;;
68089;SDS011;54880;50.986;6.990;2023-02-26T02:10:03;5.93;;;1.57;;
68089;SDS011;54880;50.986;6.990;2023-02-26T02:12:43;9.00;;;2.05;;
68089;SDS011;54880;50.986;6.990;2023-02-26T02:17:47;8.95;;;1.73;;
68089;SDS011;54880;50.986;6.990;2023-02-26T02:25:13;6.20;;;1.57;;
68089;SDS011;54880;50.986;6.990;2023-02-26T02:33:25;8.90;;;2.03;;
68089;SDS011;54880;50.986;6.990;2023-02-26T02:35:49;7.83;;;1.37;;
68089;SDS011;54880;50.986;6.990;2023-02-26T02:38:22;6.22;;;1.40;;
68089;SDS011;54880;50.986;6.990;2023-02-26T02:40:49;10.95;;;2.10;;
68089;SDS011;54880;50.986;6.990;2023-02-26T02:43:16;7.53;;;1.92;;
68089;SDS011;54880;50.986;6.990;2023-02-26T02:45:49;7.07;;;1.50;;
68089;SDS011;54880;50.986;6.990;2023-02-26T02:51:12;8.02;;;1.73;;
68089;SDS011;54880;50.986;6.990;2023-02-26T02:56:09;7.90;;;1.25;;
68089;SDS011;54880;50.986;6.990;2023-02-26T02:58:37;7.32;;;1.63;;
68089;SDS011;54880;50.986;6.990;2023-02-26T03:01:04;7.55;;;1.63;;
68089;SDS011;54880;50.986;6.990;2023-02-26T03:03:49;8.63;;;1.30;;
68089;SDS011;54880;50.986;6.990;2023-02-26T03:06:16;9.57;;;2.03;;
68089;SDS011;54880;50.986;6.990;2023-02-26T03:08:42;6.50;;;1.50;;
68089;SDS011;54880;50.986;6.990;2023-02-26T03:11:08;5.97;;;1.65;;
68089;SDS011;54880;50.986;6.990;2023-02-26T03:13:34;7.30;;;1.50;;
68089;SDS011;54880;50.986;6.990;2023-02-26T03:16:12;6.57;;;1.52;;
68089;SDS011;54880;50.986;6.990;2023-02-26T03:18:50;8.30;;;1.50;;
68089;SDS011;54880;50.986;6.990;2023-02-26T03:23:53;7.03;;;1.70;;
68089;SDS011;54880;50.986;6.990;2023-02-26T03:26:28;7.30;;;1.77;;
68089;SDS011;54880;50.986;6.990;2023-02-26T03:28:56;5.60;;;1.50;;
68089;SDS011;54880;50.986;6.990;2023-02-26T03:31:31;9.20;;;1.93;;
68089;SDS011;54880;50.986;6.990;2023-02-26T03:33:59;7.40;;;1.52;;
68089;SDS011;54880;50.986;6.990;2023-02-26T03:36:28;9.52;;;1.60;;
68089;SDS011;54880;50.986;6.990;2023-02-26T03:39:15;8.98;;;1.58;;
68089;SDS011;54880;50.986;6.990;2023-02-26T03:41:48;6.90;;;1.77;;
68089;SDS011;54880;50.986;6.990;2023-02-26T03:44:21;8.77;;;1.73;;
68089;SDS011;54880;50.986;6.990;2023-02-26T03:46:50;7.25;;;1.90;;
68089;SDS011;54880;50.986;6.990;2023-02-26T03:49:26;5.10;;;1.27;;
68089;SDS011;54880;50.986;6.990;2023-02-26T03:51:53;4.45;;;1.10;;
68089;SDS011;54880;50.986;6.990;2023-02-26T03:54:41;9.10;;;1.70;;
68089;SDS011;54880;50.986;6.990;2023-02-26T03:57:27;7.85;;;1.58;;
68089;SDS011;54880;50.986;6.990;2023-02-26T04:00:17;10.63;;;1.38;;
68089;SDS011;54880;50.986;6.990;2023-02-26T04:02:58;6.63;;;1.60;;
68089;SDS011;54880;50.986;6.990;2023-02-26T04:05:25;6.53;;;1.35;;
68089;SDS011;54880;50.986;6.990;2023-02-26T04:07:51;6.77;;;1.30;;
68089;SDS011;54880;50.986;6.990;2023-02-26T04:10:18;5.70;;;1.40;;
68089;SDS011;54880;50.986;6.990;2023-02-26T04:12:45;6.77;;;1.10;;
68089;SDS011;54880;50.986;6.990;2023-02-26T04:15:10;7.00;;;1.35;;
68089;SDS011;54880;50.986;6.990;2023-02-26T04:17:36;8.80;;;1.67;;
68089;SDS011;54880;50.986;6.990;2023-02-26T04:20:01;6.60;;;1.40;;
68089;SDS011;54880;50.986;6.990;2023-02-26T04:22:32;8.13;;;1.30;;
68089;SDS011;54880;50.986;6.990;2023-02-26T04:24:57;5.75;;;1.35;;
68089;SDS011;54880;50.986;6.990;2023-02-26T04:27:23;8.60;;;1.70;;
68089;SDS011;54880;50.986;6.990;2023-02-26T04:29:48;7.13;;;1.50;;
68089;SDS011;54880;50.986;6.990;2023-02-26T04:32:13;5.83;;;1.20;;
68089;SDS011;54880;50.986;6.990;2023-02-26T04:34:39;6.43;;;1.23;;
68089;SDS011;54880;50.986;6.990;2023-02-26T04:37:05;7.88;;;1.40;;
68089;SDS011;54880;50.986;6.990;2023-02-26T04:39:31;6.13;;;1.25;;
68089;SDS011;54880;50.986;6.990;2023-02-26T04:41:57;5.07;;;1.60;;
68089;SDS011;54880;50.986;6.990;2023-02-26T04:44:22;6.43;;;1.47;;
68089;SDS011;54880;50.986;6.990;2023-02-26T04:46:48;5.82;;;1.20;;
68089;SDS011;54880;50.986;6.990;2023-02-26T04:49:13;6.00;;;1.30;;
68089;SDS011;54880;50.986;6.990;2023-02-26T04:51:42;5.97;;;1.17;;
68089;SDS011;54880;50.986;6.990;2023-02-26T04:54:07;6.57;;;1.20;;
68089;SDS011;54880;50.986;6.990;2023-02-26T04:56:32;9.00;;;1.33;;
68089;SDS011;54880;50.986;6.990;2023-02-26T04:58:59;8.83;;;1.97;;
68089;SDS011;54880;50.986;6.990;2023-02-26T05:01:27;8.68;;;2.40;;
68089;SDS011;54880;50.986;6.990;2023-02-26T05:03:53;8.20;;;2.47;;
68089;SDS011;54880;50.986;6.990;2023-02-26T05:06:18;9.32;;;1.45;;
68089;SDS011;54880;50.986;6.990;2023-02-26T05:08:44;9.60;;;1.67;;
68089;SDS011;54880;50.986;6.990;2023-02-26T05:11:09;5.60;;;1.30;;
68089;SDS011;54880;50.986;6.990;2023-02-26T05:13:35;6.55;;;1.40;;
68089;SDS011;54880;50.986;6.990;2023-02-26T05:16:00;6.75;;;1.25;;
68089;SDS011;54880;50.986;6.990;2023-02-26T05:18:26;7.65;;;1.33;;
68089;SDS011;54880;50.986;6.990;2023-02-26T05:20:52;7.90;;;1.67;;
68089;SDS011;54880;50.986;6.990;2023-02-26T05:23:18;6.07;;;1.53;;
68089;SDS011;54880;50.986;6.990;2023-02-26T05:25:43;4.50;;;1.30;;
68089;SDS011;54880;50.986;6.990;2023-02-26T05:28:08;9.40;;;1.43;;
68089;SDS011;54880;50.986;6.990;2023-02-26T05:30:34;10.33;;;2.07;;
68089;SDS011;54880;50.986;6.990;2023-02-26T05:32:59;4.97;;;1.20;;
68089;SDS011;54880;50.986;6.990;2023-02-26T05:35:24;6.80;;;1.50;;
68089;SDS011;54880;50.986;6.990;2023-02-26T05:37:49;6.97;;;1.30;;
68089;SDS011;54880;50.986;6.990;2023-02-26T05:40:15;7.23;;;1.40;;
68089;SDS011;54880;50.986;6.990;2023-02-26T05:42:40;5.43;;;1.53;;
68089;SDS011;54880;50.986;6.990;2023-02-26T05:45:06;6.55;;;1.48;;
68089;SDS011;54880;50.986;6.990;2023-02-26T05:47:32;6.20;;;1.33;;
68089;SDS011;54880;50.986;6.990;2023-02-26T05:49:57;7.75;;;1.70;;
68089;SDS011;54880;50.986;6.990;2023-02-26T05:52:22;7.63;;;1.50;;
68089;SDS011;54880;50.986;6.990;2023-02-26T05:54:48;5.93;;;1.50;;
68089;SDS011;54880;50.986;6.990;2023-02-26T05:57:13;9.60;;;1.40;;
68089;SDS011;54880;50.986;6.990;2023-02-26T05:59:38;11.70;;;1.60;;
68089;SDS011;54880;50.986;6.990;2023-02-26T06:02:03;7.00;;;1.60;;
68089;SDS011;54880;50.986;6.990;2023-02-26T06:04:29;5.97;;;1.60;;
68089;SDS011;54880;50.986;6.990;2023-02-26T06:06:54;6.97;;;1.57;;
68089;SDS011;54880;50.986;6.990;2023-02-26T06:09:19;5.87;;;1.40;;
68089;SDS011;54880;50.986;6.990;2023-02-26T06:11:44;5.83;;;1.50;;
68089;SDS011;54880;50.986;6.990;2023-02-26T06:14:10;7.43;;;1.80;;
68089;SDS011;54880;50.986;6.990;2023-02-26T06:16:35;9.27;;;1.90;;
68089;SDS011;54880;50.986;6.990;2023-02-26T06:19:00;7.80;;;1.60;;
68089;SDS011;54880;50.986;6.990;2023-02-26T06:21:26;9.00;;;1.50;;
68089;SDS011;54880;50.986;6.990;2023-02-26T06:23:51;7.27;;;1.80;;
68089;SDS011;54880;50.986;6.990;2023-02-26T06:26:16;8.10;;;2.40;;
68089;SDS011;54880;50.986;6.990;2023-02-26T06:28:41;6.43;;;1.60;;
68089;SDS011;54880;50.986;6.990;2023-02-26T06:31:07;7.07;;;1.50;;
68089;SDS011;54880;50.986;6.990;2023-02-26T06:33:32;6.33;;;1.60;;
68089;SDS011;54880;50.986;6.990;2023-02-26T06:35:59;8.37;;;2.13;;
68089;SDS011;54880;50.986;6.990;2023-02-26T06:38:25;6.70;;;2.00;;
68089;SDS011;54880;50.986;6.990;2023-02-26T06:40:50;6.53;;;1.73;;
68089;SDS011;54880;50.986;6.990;2023-02-26T06:43:15;6.83;;;1.73;;
68089;SDS011;54880;50.986;6.990;2023-02-26T06:45:40;8.53;;;1.80;;
68089;SDS011;54880;50.986;6.990;2023-02-26T06:48:06;9.67;;;2.23;;
68089;SDS011;54880;50.986;6.990;2023-02-26T06:50:32;9.20;;;1.80;;
68089;SDS011;54880;50.986;6.990;2023-02-26T06:52:58;5.77;;;1.57;;
68089;SDS011;54880;50.986;6.990;2023-02-26T06:55:23;5.40;;;1.40;;
68089;SDS011;54880;50.986;6.990;2023-02-26T06:57:51;6.88;;;1.98;;
68089;SDS011;54880;50.986;6.990;2023-02-26T07:00:17;6.20;;;1.80;;
68089;SDS011;54880;50.986;6.990;2023-02-26T07:02:43;6.73;;;1.80;;
68089;SDS011;54880;50.986;6.990;2023-02-26T07:05:08;8.30;;;2.00;;
68089;SDS011;54880;50.986;6.990;2023-02-26T07:07:33;7.77;;;2.00;;
68089;SDS011;54880;50.986;6.990;2023-02-26T07:09:58;6.80;;;1.87;;
68089;SDS011;54880;50.986;6.990;2023-02-26T07:12:24;7.93;;;2.00;;
68089;SDS011;54880;50.986;6.990;2023-02-26T07:14:49;7.13;;;2.20;;
68089;SDS011;54880;50.986;6.990;2023-02-26T07:17:14;7.10;;;2.23;;
68089;SDS011;54880;50.986;6.990;2023-02-26T07:19:45;9.32;;;2.00;;
68089;SDS011;54880;50.986;6.990;2023-02-26T07:22:10;7.87;;;1.93;;
68089;SDS011;54880;50.986;6.990;2023-02-26T07:24:35;6.93;;;1.83;;
68089;SDS011;54880;50.986;6.990;2023-02-26T07:27:01;5.70;;;1.80;;
68089;SDS011;54880;50.986;6.990;2023-02-26T07:29:26;8.23;;;2.13;;
68089;SDS011;54880;50.986;6.990;2023-02-26T07:31:51;9.53;;;2.20;;
68089;SDS011;54880;50.986;6.990;2023-02-26T07:34:16;6.67;;;2.00;;
68089;SDS011;54880;50.986;6.990;2023-02-26T07:36:41;7.63;;;2.10;;
68089;SDS011;54880;50.986;6.990;2023-02-26T07:39:07;7.75;;;1.67;;
68089;SDS011;54880;50.986;6.990;2023-02-26T07:41:32;6.93;;;2.17;;
68089;SDS011;54880;50.986;6.990;2023-02-26T07:43:57;10.47;;;2.40;;
68089;SDS011;54880;50.986;6.990;2023-02-26T07:46:23;6.40;;;1.97;;
68089;SDS011;54880;50.986;6.990;2023-02-26T07:48:48;6.57;;;2.23;;
68089;SDS011;54880;50.986;6.990;2023-02-26T07:51:13;6.27;;;1.93;;
68089;SDS011;54880;50.986;6.990;2023-02-26T07:53:39;5.80;;;2.10;;
68089;SDS011;54880;50.986;6.990;2023-02-26T07:56:04;6.20;;;2.20;;
68089;SDS011;54880;50.986;6.990;2023-02-26T07:58:29;8.13;;;2.40;;
68089;SDS011;54880;50.986;6.990;2023-02-26T08:00:55;8.10;;;2.50;;
68089;SDS011;54880;50.986;6.990;2023-02-26T08:03:20;6.27;;;2.30;;
68089;SDS011;54880;50.986;6.990;2023-02-26T08:05:45;7.70;;;2.13;;
68089;SDS011;54880;50.986;6.990;2023-02-26T08:08:10;9.57;;;2.50;;
68089;SDS011;54880;50.986;6.990;2023-02-26T08:10:36;6.78;;;2.78;;
68089;SDS011;54880;50.986;6.990;2023-02-26T08:13:01;8.27;;;2.30;;
68089;SDS011;54880;50.986;6.990;2023-02-26T08:15:26;5.90;;;2.17;;
68089;SDS011;54880;50.986;6.990;2023-02-26T08:17:52;8.77;;;2.10;;
68089;SDS011;54880;50.986;6.990;2023-02-26T08:20:17;6.23;;;2.00;;
68089;SDS011;54880;50.986;6.990;2023-02-26T08:22:43;7.43;;;2.10;;
68089;SDS011;54880;50.986;6.990;2023-02-26T08:25:08;6.83;;;2.33;;
68089;SDS011;54880;50.986;6.990;2023-02-26T08:27:33;8.80;;;2.10;;
68089;SDS011;54880;50.986;6.990;2023-02-26T08:29:58;6.30;;;1.97;;
68089;SDS011;54880;50.986;6.990;2023-02-26T08:32:24;9.33;;;2.23;;
68089;SDS011;54880;50.986;6.990;2023-02-26T08:34:51;7.35;;;1.95;;
68089;SDS011;54880;50.986;6.990;2023-02-26T08:37:16;7.40;;;2.10;;
68089;SDS011;54880;50.986;6.990;2023-02-26T08:39:41;5.67;;;2.00;;
68089;SDS011;54880;50.986;6.990;2023-02-26T08:42:07;7.30;;;2.23;;
68089;SDS011;54880;50.986;6.990;2023-02-26T08:44:33;8.93;;;1.60;;
68089;SDS011;54880;50.986;6.990;2023-02-26T08:46:58;7.23;;;1.60;;
68089;SDS011;54880;50.986;6.990;2023-02-26T08:49:23;8.33;;;2.13;;
68089;SDS011;54880;50.986;6.990;2023-02-26T08:51:49;5.90;;;1.60;;
68089;SDS011;54880;50.986;6.990;2023-02-26T08:54:14;7.03;;;1.55;;
68089;SDS011;54880;50.986;6.990;2023-02-26T08:56:39;8.23;;;1.30;;
68089;SDS011;54880;50.986;6.990;2023-02-26T08:59:05;7.00;;;1.63;;
68089;SDS011;54880;50.986;6.990;2023-02-26T09:01:30;7.50;;;2.17;;
68089;SDS011;54880;50.986;6.990;2023-02-26T09:03:55;5.03;;;1.27;;
68089;SDS011;54880;50.986;6.990;2023-02-26T09:06:21;6.47;;;1.53;;
68089;SDS011;54880;50.986;6.990;2023-02-26T09:08:46;6.63;;;1.43;;
68089;SDS011;54880;50.986;6.990;2023-02-26T09:11:11;4.10;;;1.20;;
68089;SDS011;54880;50.986;6.990;2023-02-26T09:13:36;6.37;;;1.60;;
68089;SDS011;54880;50.986;6.990;2023-02-26T09:16:02;6.50;;;1.63;;
68089;SDS011;54880;50.986;6.990;2023-02-26T09:18:27;7.70;;;1.80;;
68089;SDS011;54880;50.986;6.990;2023-02-26T09:20:52;8.30;;;1.70;;
68089;SDS011;54880;50.986;6.990;2023-02-26T09:23:18;5.43;;;1.60;;
68089;SDS011;54880;50.986;6.990;2023-02-26T09:25:43;7.57;;;1.93;;
68089;SDS011;54880;50.986;6.990;2023-02-26T09:28:08;5.90;;;1.67;;
68089;SDS011;54880;50.986;6.990;2023-02-26T09:30:34;5.53;;;1.33;;
68089;SDS011;54880;50.986;6.990;2023-02-26T09:32:59;5.25;;;1.42;;
68089;SDS011;54880;50.986;6.990;2023-02-26T09:35:24;6.23;;;1.40;;
68089;SDS011;54880;50.986;6.990;2023-02-26T09:37:49;7.47;;;1.33;;
68089;SDS011;54880;50.986;6.990;2023-02-26T09:45:35;4.68;;;1.20;;
68089;SDS011;54880;50.986;6.990;2023-02-26T09:48:02;3.13;;;0.90;;
68089;SDS011;54880;50.986;6.990;2023-02-26T09:50:42;3.83;;;0.90;;
68089;SDS011;54880;50.986;6.990;2023-02-26T09:53:14;6.28;;;1.70;;
68089;SDS011;54880;50.986;6.990;2023-02-26T09:55:44;18.05;;;6.22;;
68089;SDS011;54880;50.986;6.990;2023-02-26T09:58:17;7.82;;;2.35;;
68089;SDS011;54880;50.986;6.990;2023-02-26T10:01:01;3.60;;;0.90;;
68089;SDS011;54880;50.986;6.990;2023-02-26T10:03:34;5.30;;;1.00;;
68089;SDS011;54880;50.986;6.990;2023-02-26T10:08:32;4.40;;;1.13;;
68089;SDS011;54880;50.986;6.990;2023-02-26T10:11:07;4.47;;;1.35;;
68089;SDS011;54880;50.986;6.990;2023-02-26T10:13:41;6.18;;;1.20;;
68089;SDS011;54880;50.986;6.990;2023-02-26T10:16:14;4.57;;;1.10;;
68089;SDS011;54880;50.986;6.990;2023-02-26T10:18:45;6.07;;;1.30;;
68089;SDS011;54880;50.986;6.990;2023-02-26T10:21:13;5.65;;;1.10;;
68089;SDS011;54880;50.986;6.990;2023-02-26T10:23:53;4.75;;;1.00;;
68089;SDS011;54880;50.986;6.990;2023-02-26T10:26:24;7.53;;;1.27;;
68089;SDS011;54880;50.986;6.990;2023-02-26T10:37:22;4.40;;;1.00;;
68089;SDS011;54880;50.986;6.990;2023-02-26T10:39:55;5.38;;;1.00;;
68089;SDS011;54880;50.986;6.990;2023-02-26T10:42:22;4.75;;;1.20;;
68089;SDS011;54880;50.986;6.990;2023-02-26T10:50:15;4.22;;;1.02;;
68089;SDS011;54880;50.986;6.990;2023-02-26T10:52:42;4.32;;;0.90;;
68089;SDS011;54880;50.986;6.990;2023-02-26T10:58:11;4.50;;;0.93;;
68089;SDS011;54880;50.986;6.990;2023-02-26T11:00:42;3.78;;;0.73;;
68089;SDS011;54880;50.986;6.990;2023-02-26T11:03:12;3.92;;;1.20;;
68089;SDS011;54880;50.986;6.990;2023-02-26T11:05:38;4.20;;;1.00;;
68089;SDS011;54880;50.986;6.990;2023-02-26T11:08:12;4.40;;;1.00;;
68089;SDS011;54880;50.986;6.990;2023-02-26T11:10:41;5.28;;;0.98;;
68089;SDS011;54880;50.986;6.990;2023-02-26T11:13:06;4.30;;;1.05;;
68089;SDS011;54880;50.986;6.990;2023-02-26T11:15:32;8.90;;;1.33;;
68089;SDS011;54880;50.986;6.990;2023-02-26T11:17:58;5.87;;;1.07;;
68089;SDS011;54880;50.986;6.990;2023-02-26T11:20:32;4.47;;;1.00;;
68089;SDS011;54880;50.986;6.990;2023-02-26T11:22:58;7.50;;;1.38;;
68089;SDS011;54880;50.986;6.990;2023-02-26T11:25:26;3.10;;;0.75;;
68089;SDS011;54880;50.986;6.990;2023-02-26T11:28:03;4.00;;;1.02;;
68089;SDS011;54880;50.986;6.990;2023-02-26T11:30:30;5.40;;;1.27;;
68089;SDS011;54880;50.986;6.990;2023-02-26T11:32:57;4.32;;;0.82;;
68089;SDS011;54880;50.986;6.990;2023-02-26T11:35:23;5.00;;;0.90;;
68089;SDS011;54880;50.986;6.990;2023-02-26T11:37:49;4.25;;;1.00;;
68089;SDS011;54880;50.986;6.990;2023-02-26T11:42:52;2.70;;;0.70;;
68089;SDS011;54880;50.986;6.990;2023-02-26T11:45:18;4.00;;;0.70;;
68089;SDS011;54880;50.986;6.990;2023-02-26T11:47:47;4.05;;;0.80;;
68089;SDS011;54880;50.986;6.990;2023-02-26T11:50:14;3.80;;;0.80;;
68089;SDS011;54880;50.986;6.990;2023-02-26T11:52:42;5.82;;;0.93;;
68089;SDS011;54880;50.986;6.990;2023-02-26T11:55:17;5.57;;;1.37;;
68089;SDS011;54880;50.986;6.990;2023-02-26T11:57:42;6.10;;;0.70;;
68089;SDS011;54880;50.986;6.990;2023-02-26T12:00:16;5.80;;;0.87;;
68089;SDS011;54880;50.986;6.990;2023-02-26T12:02:44;6.10;;;1.15;;
68089;SDS011;54880;50.986;6.990;2023-02-26T12:05:09;4.70;;;1.10;;
68089;SDS011;54880;50.986;6.990;2023-02-26T12:07:36;5.57;;;0.90;;
68089;SDS011;54880;50.986;6.990;2023-02-26T12:10:04;4.57;;;1.30;;
68089;SDS011;54880;50.986;6.990;2023-02-26T12:12:40;4.70;;;0.90;;
68089;SDS011;54880;50.986;6.990;2023-02-26T12:15:11;3.58;;;0.80;;
68089;SDS011;54880;50.986;6.990;2023-02-26T12:33:24;3.67;;;0.80;;
68089;SDS011;54880;50.986;6.990;2023-02-26T12:46:07;4.70;;;1.07;;
68089;SDS011;54880;50.986;6.990;2023-02-26T12:51:21;3.17;;;0.80;;
68089;SDS011;54880;50.986;6.990;2023-02-26T12:58:59;4.10;;;1.00;;
68089;SDS011;54880;50.986;6.990;2023-02-26T13:06:24;4.27;;;1.17;;
68089;SDS011;54880;50.986;6.990;2023-02-26T13:14:11;3.30;;;0.83;;
68089;SDS011;54880;50.986;6.990;2023-02-26T13:21:50;4.13;;;0.90;;
68089;SDS011;54880;50.986;6.990;2023-02-26T13:26:48;3.45;;;0.98;;
68089;SDS011;54880;50.986;6.990;2023-02-26T13:29:16;3.10;;;0.73;;
68089;SDS011;54880;50.986;6.990;2023-02-26T13:31:51;4.57;;;0.95;;
68089;SDS011;54880;50.986;6.990;2023-02-26T13:39:48;3.45;;;1.00;;
68089;SDS011;54880;50.986;6.990;2023-02-26T13:42:32;4.17;;;1.03;;
68089;SDS011;54880;50.986;6.990;2023-02-26T13:49:58;4.33;;;1.00;;
68089;SDS011;54880;50.986;6.990;2023-02-26T13:52:28;3.42;;;0.93;;
68089;SDS011;54880;50.986;6.990;2023-02-26T13:54:54;3.90;;;0.90;;
68089;SDS011;54880;50.986;6.990;2023-02-26T13:57:22;3.40;;;0.80;;
68089;SDS011;54880;50.986;6.990;2023-02-26T13:59:54;4.40;;;0.88;;
68089;SDS011;54880;50.986;6.990;2023-02-26T14:02:29;5.72;;;0.90;;
68089;SDS011;54880;50.986;6.990;2023-02-26T14:04:58;3.80;;;1.00;;
68089;SDS011;54880;50.986;6.990;2023-02-26T14:14:02;5.55;;;0.80;;
68089;SDS011;54880;50.986;6.990;2023-02-26T14:18:35;4.60;;;1.10;;
68089;SDS011;54880;50.986;6.990;2023-02-26T14:21:26;4.63;;;0.93;;
68089;SDS011;54880;50.986;6.990;2023-02-26T14:23:51;4.28;;;1.00;;
68089;SDS011;54880;50.986;6.990;2023-02-26T14:26:19;4.57;;;0.90;;
68089;SDS011;54880;50.986;6.990;2023-02-26T14:29:06;4.35;;;0.77;;
68089;SDS011;54880;50.986;6.990;2023-02-26T14:32:15;5.78;;;0.98;;
68089;SDS011;54880;50.986;6.990;2023-02-26T14:34:21;5.87;;;1.20;;
68089;SDS011;54880;50.986;6.990;2023-02-26T14:36:48;5.18;;;1.02;;
68089;SDS011;54880;50.986;6.990;2023-02-26T14:39:18;4.55;;;1.23;;
68089;SDS011;54880;50.986;6.990;2023-02-26T14:41:46;3.28;;;0.80;;
68089;SDS011;54880;50.986;6.990;2023-02-26T14:44:21;4.23;;;1.30;;
68089;SDS011;54880;50.986;6.990;2023-02-26T14:46:47;3.65;;;0.80;;
68089;SDS011;54880;50.986;6.990;2023-02-26T14:49:24;3.28;;;0.80;;
68089;SDS011;54880;50.986;6.990;2023-02-26T14:51:53;3.88;;;0.70;;
68089;SDS011;54880;50.986;6.990;2023-02-26T14:56:56;3.20;;;0.70;;
68089;SDS011;54880;50.986;6.990;2023-02-26T15:15:23;5.75;;;1.35;;
68089;SDS011;54880;50.986;6.990;2023-02-26T15:25:39;4.77;;;0.80;;
68089;SDS011;54880;50.986;6.990;2023-02-26T15:28:04;4.00;;;0.70;;
68089;SDS011;54880;50.986;6.990;2023-02-26T15:30:30;3.58;;;0.80;;
68089;SDS011;54880;50.986;6.990;2023-02-26T15:32:57;4.28;;;0.90;;
68089;SDS011;54880;50.986;6.990;2023-02-26T15:35:23;4.15;;;1.00;;
68089;SDS011;54880;50.986;6.990;2023-02-26T15:37:55;3.97;;;1.00;;
68089;SDS011;54880;50.986;6.990;2023-02-26T15:40:22;5.80;;;1.00;;
68089;SDS011;54880;50.986;6.990;2023-02-26T15:42:48;4.85;;;1.00;;
68089;SDS011;54880;50.986;6.990;2023-02-26T15:45:18;4.90;;;1.30;;
68089;SDS011;54880;50.986;6.990;2023-02-26T15:47:45;4.70;;;1.20;;
68089;SDS011;54880;50.986;6.990;2023-02-26T15:50:13;5.85;;;1.00;;
68089;SDS011;54880;50.986;6.990;2023-02-26T15:52:40;4.57;;;1.02;;
68089;SDS011;54880;50.986;6.990;2023-02-26T15:55:05;5.13;;;1.10;;
68089;SDS011;54880;50.986;6.990;2023-02-26T15:57:31;5.00;;;0.90;;
68089;SDS011;54880;50.986;6.990;2023-02-26T16:00:00;5.37;;;0.97;;
68089;SDS011;54880;50.986;6.990;2023-02-26T16:02:37;4.40;;;1.10;;
68089;SDS011;54880;50.986;6.990;2023-02-26T16:05:03;3.63;;;0.77;;
68089;SDS011;54880;50.986;6.990;2023-02-26T16:07:28;4.77;;;1.30;;
68089;SDS011;54880;50.986;6.990;2023-02-26T16:09:54;3.92;;;0.80;;
68089;SDS011;54880;50.986;6.990;2023-02-26T16:14:55;4.07;;;1.10;;
68089;SDS011;54880;50.986;6.990;2023-02-26T16:17:28;4.82;;;1.17;;
68089;SDS011;54880;50.986;6.990;2023-02-26T16:19:55;4.40;;;0.90;;
68089;SDS011;54880;50.986;6.990;2023-02-26T16:22:23;4.80;;;1.23;;
68089;SDS011;54880;50.986;6.990;2023-02-26T16:25:51;5.00;;;1.00;;
68089;SDS011;54880;50.986;6.990;2023-02-26T16:27:44;4.70;;;1.20;;
68089;SDS011;54880;50.986;6.990;2023-02-26T16:30:19;4.53;;;1.00;;
68089;SDS011;54880;50.986;6.990;2023-02-26T16:32:46;4.20;;;0.80;;
68089;SDS011;54880;50.986;6.990;2023-02-26T16:35:16;4.88;;;1.05;;
68089;SDS011;54880;50.986;6.990;2023-02-26T16:37:45;3.80;;;0.80;;
68089;SDS011;54880;50.986;6.990;2023-02-26T16:40:25;5.03;;;1.10;;
68089;SDS011;54880;50.986;6.990;2023-02-26T16:42:52;4.45;;;1.00;;
68089;SDS011;54880;50.986;6.990;2023-02-26T16:45:24;3.45;;;0.80;;
68089;SDS011;54880;50.986;6.990;2023-02-26T16:47:50;6.80;;;1.33;;
68089;SDS011;54880;50.986;6.990;2023-02-26T16:50:18;5.20;;;1.20;;
68089;SDS011;54880;50.986;6.990;2023-02-26T16:52:45;6.10;;;1.00;;
68089;SDS011;54880;50.986;6.990;2023-02-26T16:55:10;5.35;;;1.17;;
68089;SDS011;54880;50.986;6.990;2023-02-26T16:57:42;4.50;;;1.20;;
68089;SDS011;54880;50.986;6.990;2023-02-26T17:00:16;3.83;;;0.90;;
68089;SDS011;54880;50.986;6.990;2023-02-26T17:02:42;6.67;;;1.37;;
68089;SDS011;54880;50.986;6.990;2023-02-26T17:05:22;5.30;;;1.27;;
68089;SDS011;54880;50.986;6.990;2023-02-26T17:07:58;4.95;;;1.10;;
68089;SDS011;54880;50.986;6.990;2023-02-26T17:10:32;6.00;;;1.20;;
68089;SDS011;54880;50.986;6.990;2023-02-26T17:13:02;4.82;;;1.60;;
68089;SDS011;54880;50.986;6.990;2023-02-26T17:15:30;5.30;;;1.20;;
68089;SDS011;54880;50.986;6.990;2023-02-26T17:17:56;4.63;;;1.20;;
68089;SDS011;54880;50.986;6.990;2023-02-26T17:20:25;4.97;;;1.20;;
68089;SDS011;54880;50.986;6.990;2023-02-26T17:22:51;4.43;;;1.20;;
68089;SDS011;54880;50.986;6.990;2023-02-26T17:25:17;5.10;;;1.27;;
68089;SDS011;54880;50.986;6.990;2023-02-26T17:27:43;5.57;;;1.20;;
68089;SDS011;54880;50.986;6.990;2023-02-26T17:30:14;4.32;;;1.27;;
68089;SDS011;54880;50.986;6.990;2023-02-26T17:32:40;4.83;;;1.20;;
68089;SDS011;54880;50.986;6.990;2023-02-26T17:35:05;5.00;;;1.27;;
68089;SDS011;54880;50.986;6.990;2023-02-26T17:37:32;5.32;;;1.17;;
68089;SDS011;54880;50.986;6.990;2023-02-26T17:39:59;6.53;;;1.40;;
68089;SDS011;54880;50.986;6.990;2023-02-26T17:42:24;5.82;;;1.20;;
68089;SDS011;54880;50.986;6.990;2023-02-26T17:44:50;6.50;;;1.20;;